Time;durP1;ratioP1;P1;durP2;ratioP2;P2;SDS_P1;SDS_P2;PMS_P1;PMS_P2;Temp;Humidity;BMP_temperature;BMP_pressure;BME280_temperature;BME280_humidity;BME280_pressure;Samples;Min_cycle;Max_cycle;Signal;HPM_P1;HPM_P2
2020/12/24 00:00:37;;;;;;;10.02;2.65;;;11.10;95.00;;;;;;10367528;28;20085;-64
2020/12/24 00:05:38;;;;;;;7.28;2.00;;;11.00;95.10;;;;;;10349336;28;20077;-64
2020/12/24 00:10:40;;;;;;;7.22;2.10;;;10.90;95.20;;;;;;10369156;28;20445;-64
2020/12/24 00:15:42;;;;;;;9.07;2.10;;;10.90;95.00;;;;;;10369893;28;20402;-64
2020/12/24 00:20:52;;;;;;;7.32;2.13;;;10.80;94.90;;;;;;10360909;28;20057;-63
2020/12/24 00:25:54;;;;;;;13.48;1.88;;;10.80;95.10;;;;;;10351703;28;20061;-63
2020/12/24 00:30:55;;;;;;;7.85;1.80;;;10.70;95.10;;;;;;10342860;28;20498;-64
2020/12/24 00:35:57;;;;;;;8.60;2.50;;;10.60;95.10;;;;;;10370595;28;20078;-63
2020/12/24 00:40:58;;;;;;;9.27;2.25;;;10.60;95.00;;;;;;10374126;28;20057;-64
2020/12/24 00:46:00;;;;;;;14.38;3.00;;;10.40;95.20;;;;;;10351002;28;20549;-64
2020/12/24 00:51:11;;;;;;;8.20;2.20;;;10.40;95.10;;;;;;10375202;28;20060;-63
2020/12/24 00:56:12;;;;;;;8.07;2.20;;;10.40;95.80;;;;;;10350902;28;20066;-64
2020/12/24 01:01:14;;;;;;;18.55;5.53;;;10.40;95.40;;;;;;10353163;28;20149;-63
2020/12/24 01:06:15;;;;;;;18.60;6.95;;;10.40;95.20;;;;;;10374296;28;20513;-64
2020/12/24 01:11:17;;;;;;;11.65;3.45;;;10.40;95.20;;;;;;10345838;28;20153;-63
2020/12/24 01:16:18;;;;;;;12.30;4.22;;;10.40;95.00;;;;;;10373901;28;20081;-64
2020/12/24 01:21:31;;;;;;;14.50;3.90;;;10.40;95.00;;;;;;10373937;28;20133;-64
2020/12/24 01:26:32;;;;;;;13.05;3.63;;;10.40;94.70;;;;;;10375048;28;20104;-64
2020/12/24 01:31:34;;;;;;;17.10;5.63;;;10.30;95.00;;;;;;10374840;28;20058;-64
2020/12/24 01:36:35;;;;;;;14.07;6.72;;;10.30;94.90;;;;;;10373675;28;20487;-64
2020/12/24 01:41:37;;;;;;;13.23;5.63;;;10.30;94.90;;;;;;10373151;28;20085;-64
2020/12/24 01:46:38;;;;;;;12.50;4.07;;;10.30;94.70;;;;;;10361931;28;20053;-64
2020/12/24 01:51:57;;;;;;;12.73;2.80;;;10.30;94.90;;;;;;10358630;28;20057;-64
2020/12/24 01:56:58;;;;;;;12.10;3.42;;;10.20;94.10;;;;;;10360081;28;20549;-64
2020/12/24 02:02:02;;;;;;;11.02;2.90;;;10.20;94.20;;;;;;10336253;28;20142;-64
2020/12/24 02:07:03;;;;;;;11.27;3.20;;;10.20;94.10;;;;;;10349484;28;20088;-64
2020/12/24 02:12:05;;;;;;;7.32;2.25;;;10.00;93.70;;;;;;10371462;28;20049;-64
2020/12/24 02:17:07;;;;;;;8.85;2.70;;;9.90;93.90;;;;;;10372249;28;20125;-64
2020/12/24 02:22:11;;;;;;;10.10;2.65;;;9.90;93.90;;;;;;10371233;28;20053;-63
2020/12/24 02:27:12;;;;;;;8.63;2.05;;;9.90;94.30;;;;;;10362420;28;20046;-63
2020/12/24 02:32:16;;;;;;;12.43;2.22;;;9.80;94.10;;;;;;10332656;28;20058;-64
2020/12/24 02:37:18;;;;;;;10.52;2.17;;;9.80;94.40;;;;;;10340380;28;20077;-65
2020/12/24 02:42:19;;;;;;;12.27;2.38;;;9.80;94.50;;;;;;10373262;28;20479;-65
2020/12/24 02:47:21;;;;;;;11.68;2.30;;;9.80;94.60;;;;;;10372404;28;20077;-65
2020/12/24 02:52:30;;;;;;;9.35;2.30;;;9.90;94.80;;;;;;10372653;28;20482;-65
2020/12/24 02:57:32;;;;;;;13.38;1.98;;;9.80;94.60;;;;;;10371450;28;20056;-65
2020/12/24 03:02:38;;;;;;;7.32;1.77;;;9.80;94.70;;;;;;10372213;28;20491;-65
2020/12/24 03:07:40;;;;;;;11.73;2.28;;;9.70;95.20;;;;;;10371485;28;20050;-66
2020/12/24 03:12:43;;;;;;;8.98;2.05;;;9.60;94.90;;;;;;10372050;28;20112;-65
2020/12/24 03:17:44;;;;;;;14.85;2.30;;;9.60;94.60;;;;;;10371052;28;20488;-66
2020/12/24 03:22:50;;;;;;;8.88;2.10;;;9.70;94.30;;;;;;10371560;28;20550;-65
2020/12/24 03:27:52;;;;;;;11.05;2.35;;;9.70;94.10;;;;;;10371879;28;20045;-65
2020/12/24 03:32:53;;;;;;;13.05;2.67;;;9.70;94.20;;;;;;10370129;28;20053;-65
2020/12/24 03:37:54;;;;;;;13.63;2.72;;;9.70;94.20;;;;;;10371574;28;20046;-65
2020/12/24 03:42:56;;;;;;;16.15;2.55;;;9.70;94.00;;;;;;10370118;28;20054;-66
2020/12/24 03:47:57;;;;;;;9.82;2.20;;;9.70;94.00;;;;;;10370037;28;20080;-65
2020/12/24 03:53:10;;;;;;;10.30;2.30;;;9.80;93.70;;;;;;10368996;28;20136;-65
2020/12/24 03:58:11;;;;;;;11.15;2.45;;;9.70;93.20;;;;;;10364213;28;20049;-65
2020/12/24 04:03:12;;;;;;;12.30;2.30;;;9.70;93.50;;;;;;10369950;28;20053;-65
2020/12/24 04:08:14;;;;;;;13.95;2.35;;;9.70;92.70;;;;;;10332885;28;20046;-65
2020/12/24 04:13:16;;;;;;;15.52;2.67;;;9.70;92.70;;;;;;10377666;28;20176;-65
2020/12/24 04:18:17;;;;;;;10.73;2.20;;;9.70;92.60;;;;;;10378965;28;20050;-65
2020/12/24 04:23:30;;;;;;;10.10;2.25;;;9.70;93.10;;;;;;10357784;28;20112;-63
2020/12/24 04:28:32;;;;;;;11.10;2.22;;;9.70;92.90;;;;;;10378029;28;20192;-63
2020/12/24 04:33:33;;;;;;;13.65;2.47;;;9.70;93.50;;;;;;10377749;28;20138;-63
2020/12/24 04:38:35;;;;;;;11.52;2.20;;;9.80;92.90;;;;;;10378126;28;20041;-64
2020/12/24 04:43:38;;;;;;;14.23;2.17;;;9.80;92.70;;;;;;10377819;28;20050;-64
2020/12/24 04:48:41;;;;;;;12.07;2.67;;;9.80;92.60;;;;;;10377560;28;20061;-64
2020/12/24 04:53:51;;;;;;;11.57;2.00;;;9.90;92.70;;;;;;10377762;28;20081;-64
2020/12/24 04:58:53;;;;;;;18.00;2.33;;;9.90;92.10;;;;;;10376951;28;20129;-64
2020/12/24 05:03:56;;;;;;;11.32;2.65;;;10.00;92.00;;;;;;10377305;28;20049;-64
2020/12/24 05:08:59;;;;;;;10.15;2.28;;;10.10;92.30;;;;;;10391863;28;20050;-64
2020/12/24 05:14:21;;;;;;;10.57;1.98;;;10.10;91.90;;;;;;10377021;28;20041;-64
2020/12/24 05:19:23;;;;;;;12.30;2.30;;;10.10;91.90;;;;;;10375495;28;20120;-63
2020/12/24 05:24:33;;;;;;;11.13;2.17;;;10.00;91.90;;;;;;10376301;28;20084;-64
2020/12/24 05:29:40;;;;;;;12.80;2.27;;;10.00;92.10;;;;;;10375433;28;20046;-64
2020/12/24 05:34:42;;;;;;;11.57;2.45;;;10.00;92.70;;;;;;10375404;28;20089;-64
2020/12/24 05:39:46;;;;;;;11.30;2.13;;;10.00;92.10;;;;;;10375728;28;20486;-63
2020/12/24 05:44:49;;;;;;;9.65;2.08;;;9.90;92.50;;;;;;10374558;28;20133;-64
2020/12/24 05:49:50;;;;;;;10.48;2.30;;;9.80;92.80;;;;;;10348216;28;20045;-64
2020/12/24 05:54:52;;;;;;;10.70;2.15;;;9.90;93.10;;;;;;10374375;28;20046;-64
2020/12/24 05:59:56;;;;;;;10.57;2.25;;;9.90;93.00;;;;;;10374536;28;20053;-63
2020/12/24 06:05:05;;;;;;;8.55;2.05;;;9.80;92.70;;;;;;10374957;28;20383;-64
2020/12/24 06:10:09;;;;;;;7.43;2.00;;;9.90;92.90;;;;;;10374538;28;20046;-64
2020/12/24 06:15:16;;;;;;;7.50;1.85;;;9.90;92.50;;;;;;10372395;28;20046;-63
2020/12/24 06:20:19;;;;;;;8.73;2.08;;;9.90;93.30;;;;;;10373041;28;20050;-63
2020/12/24 06:25:20;;;;;;;8.15;2.00;;;9.80;93.60;;;;;;10374061;28;20096;-64
2020/12/24 06:30:26;;;;;;;8.18;2.20;;;9.80;94.20;;;;;;10372710;28;20107;-64
2020/12/24 06:35:38;;;;;;;9.32;2.20;;;9.80;94.50;;;;;;10373053;28;20123;-64
2020/12/24 06:40:40;;;;;;;7.13;2.00;;;9.60;94.50;;;;;;10372759;28;20160;-64
2020/12/24 06:45:42;;;;;;;8.55;1.85;;;9.60;95.20;;;;;;10372481;28;20080;-64
2020/12/24 06:50:46;;;;;;;8.02;1.80;;;9.70;95.20;;;;;;10372813;28;20077;-64
2020/12/24 06:56:13;;;;;;;8.20;1.52;;;9.80;95.40;;;;;;10372186;28;20050;-64
2020/12/24 07:01:23;;;;;;;5.80;1.60;;;9.60;96.30;;;;;;10372293;28;20073;-64
2020/12/24 07:06:40;;;;;;;11.97;2.00;;;9.50;97.30;;;;;;10351951;28;20045;-64
2020/12/24 07:11:43;;;;;;;10.65;1.90;;;9.50;97.90;;;;;;10365043;28;20352;-64
2020/12/24 07:16:47;;;;;;;7.63;1.90;;;9.40;98.20;;;;;;10367393;28;20065;-64
2020/12/24 07:21:53;;;;;;;7.47;2.20;;;9.50;98.50;;;;;;10345015;28;20081;-64
2020/12/24 07:26:57;;;;;;;9.43;3.05;;;9.40;98.70;;;;;;10367810;28;20553;-67
2020/12/24 07:32:06;;;;;;;6.75;1.73;;;9.50;99.10;;;;;;10368472;28;20065;-67
2020/12/24 07:37:09;;;;;;;10.23;2.20;;;9.50;99.50;;;;;;10370787;28;20128;-67
2020/12/24 07:42:10;;;;;;;7.47;1.80;;;9.50;99.90;;;;;;10368073;28;20081;-67
2020/12/24 07:47:14;;;;;;;7.93;2.03;;;9.60;99.70;;;;;;10370346;28;20445;-67
2020/12/24 07:52:16;;;;;;;10.57;2.15;;;9.70;99.90;;;;;;10370777;28;20100;-67
2020/12/24 07:57:22;;;;;;;9.27;1.90;;;9.70;99.90;;;;;;10368920;28;20128;-67
2020/12/24 08:02:23;;;;;;;9.70;1.88;;;9.60;99.90;;;;;;10368929;28;20533;-67
2020/12/24 08:07:25;;;;;;;7.65;1.58;;;9.60;99.90;;;;;;10370426;28;20049;-67
2020/12/24 08:12:26;;;;;;;6.18;1.77;;;9.50;99.90;;;;;;10369585;28;20054;-67
2020/12/24 08:17:35;;;;;;;5.47;1.90;;;9.70;99.90;;;;;;10369093;28;20046;-68
2020/12/24 08:22:59;;;;;;;8.55;2.05;;;9.70;99.90;;;;;;10368910;28;20088;-68
2020/12/24 08:28:02;;;;;;;8.70;4.75;;;9.90;99.90;;;;;;10368766;28;20129;-68
2020/12/24 08:33:24;;;;;;;11.57;5.47;;;9.80;99.90;;;;;;10369695;28;20517;-68
2020/12/24 08:38:25;;;;;;;14.10;7.15;;;9.60;99.90;;;;;;10369011;28;20490;-68
2020/12/24 08:43:29;;;;;;;10.43;5.65;;;9.50;99.90;;;;;;10369652;28;20057;-68
2020/12/24 08:48:31;;;;;;;7.45;3.40;;;9.60;99.90;;;;;;10368570;28;20046;-68
2020/12/24 08:53:32;;;;;;;6.90;3.75;;;9.60;99.90;;;;;;10370948;28;20103;-68
2020/12/24 08:58:34;;;;;;;5.38;2.17;;;9.60;99.90;;;;;;10376799;28;20077;-67
2020/12/24 09:03:35;;;;;;;13.15;8.15;;;9.60;99.90;;;;;;10375756;28;20406;-68
2020/12/24 09:08:37;;;;;;;5.78;3.00;;;9.70;99.90;;;;;;10375836;28;20068;-68
2020/12/24 09:13:43;;;;;;;5.88;2.78;;;9.60;99.90;;;;;;10375051;28;20042;-68
2020/12/24 09:18:44;;;;;;;5.18;2.33;;;9.50;99.90;;;;;;10375371;28;20077;-68
2020/12/24 09:23:45;;;;;;;3.92;1.70;;;9.50;99.90;;;;;;10376260;28;20084;-68
2020/12/24 09:28:47;;;;;;;3.22;1.58;;;9.50;99.90;;;;;;10375414;28;20478;-68
2020/12/24 09:33:48;;;;;;;6.03;1.60;;;9.50;99.90;;;;;;10375025;28;20108;-68
2020/12/24 09:38:50;;;;;;;5.82;1.75;;;9.70;99.90;;;;;;10371718;28;20049;-68
2020/12/24 09:43:52;;;;;;;4.15;1.60;;;9.70;99.90;;;;;;10373244;28;20499;-68
2020/12/24 09:48:53;;;;;;;3.97;1.70;;;9.70;99.90;;;;;;10373548;28;20410;-68
2020/12/24 09:53:54;;;;;;;2.33;1.25;;;9.80;99.90;;;;;;10373587;28;20080;-69
2020/12/24 09:58:56;;;;;;;5.15;1.30;;;9.70;99.90;;;;;;10372824;28;20142;-68
2020/12/24 10:03:57;;;;;;;4.20;1.50;;;9.80;99.90;;;;;;10372432;28;20506;-68
2020/12/24 10:08:59;;;;;;;3.20;1.20;;;9.80;99.90;;;;;;10371954;28;20540;-68
2020/12/24 10:14:00;;;;;;;1.98;1.10;;;9.80;99.90;;;;;;10371655;28;20145;-68
2020/12/24 10:19:03;;;;;;;2.88;1.20;;;9.60;99.90;;;;;;10370008;28;20161;-68
2020/12/24 10:24:05;;;;;;;4.47;1.30;;;9.60;99.90;;;;;;10372391;28;20045;-68
2020/12/24 10:29:06;;;;;;;5.45;2.13;;;9.80;99.90;;;;;;10369883;28;20137;-68
2020/12/24 10:34:08;;;;;;;3.35;1.50;;;10.00;99.90;;;;;;10386933;28;20061;-68
2020/12/24 10:39:10;;;;;;;2.65;1.20;;;10.10;99.90;;;;;;10370081;28;20053;-68
2020/12/24 10:44:11;;;;;;;2.13;0.90;;;10.30;99.90;;;;;;10349921;28;20050;-68
2020/12/24 10:49:14;;;;;;;2.03;1.10;;;10.30;99.90;;;;;;10371254;28;20076;-68
2020/12/24 10:54:15;;;;;;;6.38;3.05;;;10.20;99.90;;;;;;10370490;28;20046;-68
2020/12/24 10:59:17;;;;;;;3.90;1.40;;;10.40;99.90;;;;;;10370809;28;20528;-68
2020/12/24 11:04:20;;;;;;;19.00;10.30;;;10.30;99.90;;;;;;10369552;28;20057;-68
2020/12/24 11:09:21;;;;;;;35.15;16.27;;;10.30;99.90;;;;;;10368453;28;20077;-68
2020/12/24 11:14:22;;;;;;;14.48;7.63;;;10.50;99.90;;;;;;10357433;28;20050;-69
2020/12/24 11:19:24;;;;;;;2.38;1.20;;;10.60;99.60;;;;;;10337085;28;20075;-68
2020/12/24 11:24:25;;;;;;;2.72;1.20;;;10.50;99.00;;;;;;10364697;28;20084;-68
2020/12/24 11:29:27;;;;;;;6.53;2.75;;;10.50;98.90;;;;;;10367780;28;20093;-68
2020/12/24 11:34:29;;;;;;;2.03;1.20;;;10.50;98.80;;;;;;10368996;28;20132;-68
2020/12/24 11:39:30;;;;;;;15.60;6.50;;;10.40;98.50;;;;;;10362400;28;20039;-68
2020/12/24 11:44:40;;;;;;;1.83;1.10;;;10.30;98.90;;;;;;10363265;28;20053;-68
2020/12/24 11:49:41;;;;;;;5.55;1.85;;;10.30;98.80;;;;;;10367681;28;20137;-68
2020/12/24 11:54:43;;;;;;;2.65;1.20;;;10.30;98.90;;;;;;10369568;28;20050;-68
2020/12/24 11:59:44;;;;;;;1.80;1.10;;;10.40;99.00;;;;;;10367054;28;20042;-68
2020/12/24 12:04:45;;;;;;;2.20;1.10;;;10.60;98.60;;;;;;10364258;28;20125;-68
2020/12/24 12:09:47;;;;;;;2.35;1.30;;;10.70;98.50;;;;;;10367913;28;20053;-68
2020/12/24 12:14:49;;;;;;;3.17;1.77;;;10.70;98.20;;;;;;10367027;28;20084;-68
2020/12/24 12:19:51;;;;;;;2.35;1.30;;;10.70;98.70;;;;;;10358733;28;20081;-68
2020/12/24 12:24:52;;;;;;;4.10;1.48;;;10.70;98.70;;;;;;10366265;28;20100;-69
2020/12/24 12:29:54;;;;;;;3.03;1.10;;;10.90;98.40;;;;;;10369650;28;20537;-69
2020/12/24 12:34:55;;;;;;;2.47;1.20;;;11.10;98.20;;;;;;10374668;28;20091;-69
2020/12/24 12:39:57;;;;;;;2.75;1.20;;;11.00;97.60;;;;;;10374345;28;20409;-70
2020/12/24 12:44:58;;;;;;;3.70;1.65;;;11.00;97.70;;;;;;10365145;28;20042;-70
2020/12/24 12:50:00;;;;;;;2.40;1.17;;;10.90;97.50;;;;;;10374184;28;20089;-70
2020/12/24 12:55:03;;;;;;;2.78;1.20;;;10.70;97.90;;;;;;10373373;28;20049;-70
2020/12/24 13:00:09;;;;;;;3.28;1.20;;;10.70;97.70;;;;;;10388685;28;20406;-70
2020/12/24 13:05:11;;;;;;;3.72;1.55;;;10.70;97.50;;;;;;10371444;28;20137;-70
2020/12/24 13:10:12;;;;;;;1.33;1.00;;;10.70;97.60;;;;;;10373702;28;20133;-70
2020/12/24 13:15:14;;;;;;;2.50;1.20;;;10.60;97.00;;;;;;10370184;28;20553;-70
2020/12/24 13:20:20;;;;;;;2.45;1.10;;;10.40;97.20;;;;;;10368089;28;20077;-70
2020/12/24 13:25:22;;;;;;;2.67;1.00;;;9.90;97.40;;;;;;10371157;28;20089;-70
2020/12/24 13:30:29;;;;;;;5.13;2.35;;;9.60;97.30;;;;;;10373945;28;20077;-70
2020/12/24 13:35:31;;;;;;;5.57;3.33;;;9.40;97.30;;;;;;10373848;28;20088;-70
2020/12/24 13:40:32;;;;;;;25.95;15.07;;;9.30;97.60;;;;;;10373032;28;20121;-70
2020/12/24 13:45:34;;;;;;;128.27;67.88;;;9.30;98.10;;;;;;10368846;28;20465;-69
2020/12/24 13:50:35;;;;;;;4.57;2.40;;;9.20;97.30;;;;;;10371147;28;20057;-69
2020/12/24 13:55:37;;;;;;;2.10;1.40;;;9.20;97.50;;;;;;10373351;28;20085;-70
2020/12/24 14:00:38;;;;;;;1.83;1.20;;;9.20;97.70;;;;;;10373008;28;20082;-69
2020/12/24 14:05:40;;;;;;;3.95;1.58;;;9.20;97.60;;;;;;10370372;28;20605;-69
2020/12/24 14:10:45;;;;;;;2.63;1.27;;;9.00;96.80;;;;;;10370629;28;20050;-69
2020/12/24 14:15:46;;;;;;;3.08;1.60;;;8.90;96.50;;;;;;10372483;28;20257;-70
2020/12/24 14:20:52;;;;;;;1.33;1.10;;;8.90;96.80;;;;;;10372599;28;20046;-70
2020/12/24 14:25:54;;;;;;;1.65;1.20;;;8.80;96.10;;;;;;10372535;28;20073;-69
2020/12/24 14:30:55;;;;;;;3.25;2.30;;;8.70;95.90;;;;;;10371714;28;20129;-70
2020/12/24 14:35:56;;;;;;;2.17;1.50;;;8.50;96.00;;;;;;10372339;28;20109;-69
2020/12/24 14:41:03;;;;;;;1.98;1.40;;;8.50;96.30;;;;;;10371748;28;20457;-69
2020/12/24 14:46:06;;;;;;;2.88;1.70;;;8.50;96.60;;;;;;10370047;28;20056;-69
2020/12/24 14:51:09;;;;;;;2.15;1.50;;;8.40;96.10;;;;;;10371426;28;20045;-69
2020/12/24 14:56:10;;;;;;;3.25;1.98;;;8.30;96.40;;;;;;10371446;28;20176;-69
2020/12/24 15:01:12;;;;;;;2.45;1.30;;;8.20;96.60;;;;;;10370807;28;20054;-70
2020/12/24 15:06:14;;;;;;;2.08;1.30;;;8.30;96.80;;;;;;10370962;28;20129;-69
2020/12/24 15:11:16;;;;;;;3.10;1.70;;;8.10;95.90;;;;;;10370967;28;20050;-70
2020/12/24 15:16:18;;;;;;;2.30;1.50;;;8.10;97.40;;;;;;10371459;28;20049;-69
2020/12/24 15:21:19;;;;;;;2.30;1.40;;;8.10;96.40;;;;;;10370515;28;20058;-70
2020/12/24 15:26:21;;;;;;;3.53;1.60;;;8.10;96.70;;;;;;10365845;28;20498;-69
2020/12/24 15:31:22;;;;;;;2.40;1.48;;;8.00;96.80;;;;;;10368164;28;20058;-69
2020/12/24 15:36:24;;;;;;;2.92;1.70;;;8.10;96.90;;;;;;10370314;28;20053;-69
2020/12/24 15:41:25;;;;;;;2.78;1.60;;;7.90;97.30;;;;;;10369990;28;20056;-69
2020/12/24 15:46:27;;;;;;;3.03;1.60;;;7.90;97.60;;;;;;10365129;28;20050;-69
2020/12/24 15:51:29;;;;;;;4.03;1.70;;;8.00;97.60;;;;;;10370371;28;20050;-69
2020/12/24 15:56:32;;;;;;;4.55;2.30;;;8.00;97.70;;;;;;10369525;28;20124;-69
2020/12/24 16:01:33;;;;;;;4.38;1.70;;;8.00;97.70;;;;;;10368764;28;20397;-69
2020/12/24 16:06:39;;;;;;;3.00;2.00;;;8.00;97.90;;;;;;10366471;28;20049;-69
2020/12/24 16:11:41;;;;;;;3.15;1.95;;;8.00;97.70;;;;;;10369081;28;20056;-70
2020/12/24 16:16:42;;;;;;;4.35;2.05;;;7.90;98.00;;;;;;10369046;28;20073;-69
2020/12/24 16:21:45;;;;;;;8.57;2.05;;;8.00;97.80;;;;;;10368692;28;20141;-69
2020/12/24 16:26:46;;;;;;;5.88;2.17;;;8.00;98.10;;;;;;10366312;28;20452;-70
2020/12/24 16:31:51;;;;;;;3.90;2.30;;;7.90;98.10;;;;;;10364384;28;20085;-65
2020/12/24 16:36:56;;;;;;;4.45;2.30;;;7.90;98.60;;;;;;10368039;28;20138;-66
2020/12/24 16:42:05;;;;;;;4.75;2.30;;;7.70;98.10;;;;;;10367669;28;20046;-65
2020/12/24 16:47:06;;;;;;;5.13;2.85;;;7.70;98.90;;;;;;10363714;28;20081;-65
2020/12/24 16:52:09;;;;;;;3.53;2.40;;;7.70;98.70;;;;;;10367988;28;20050;-65
2020/12/24 16:57:10;;;;;;;4.72;2.67;;;7.70;98.60;;;;;;10367187;28;20082;-65
2020/12/24 17:02:12;;;;;;;5.30;3.13;;;7.70;98.70;;;;;;10366964;28;20112;-66
2020/12/24 17:07:14;;;;;;;4.53;3.10;;;7.70;98.50;;;;;;10367662;28;20550;-66
2020/12/24 17:12:19;;;;;;;4.95;3.17;;;7.80;98.80;;;;;;10366544;28;20481;-65
2020/12/24 17:17:21;;;;;;;6.40;4.00;;;7.80;98.40;;;;;;10370638;28;20054;-66
2020/12/24 17:22:22;;;;;;;6.75;4.43;;;7.70;98.50;;;;;;10374863;28;20068;-66
2020/12/24 17:27:23;;;;;;;6.93;5.25;;;7.70;98.70;;;;;;10371825;28;20406;-65
2020/12/24 17:32:25;;;;;;;10.43;6.68;;;7.70;98.70;;;;;;10371912;28;20097;-66
2020/12/24 17:37:29;;;;;;;7.45;6.35;;;7.70;98.90;;;;;;10373889;28;20054;-66
2020/12/24 17:42:30;;;;;;;10.88;8.73;;;7.60;99.00;;;;;;10370831;28;20070;-65
2020/12/24 17:47:33;;;;;;;8.65;6.22;;;7.60;98.90;;;;;;10371761;28;20042;-65
2020/12/24 17:52:34;;;;;;;7.53;6.32;;;7.50;98.80;;;;;;10371950;28;20052;-66
2020/12/24 17:57:36;;;;;;;9.30;7.20;;;7.60;98.60;;;;;;10372445;28;20383;-66
2020/12/24 18:02:37;;;;;;;8.98;7.35;;;7.50;98.50;;;;;;10372538;28;20081;-65
2020/12/24 18:07:38;;;;;;;13.35;9.65;;;7.60;98.80;;;;;;10372709;28;20480;-66
2020/12/24 18:12:40;;;;;;;13.27;9.70;;;7.60;99.00;;;;;;10370589;28;20093;-65
2020/12/24 18:17:41;;;;;;;13.32;10.52;;;7.60;99.10;;;;;;10370800;28;20208;-66
2020/12/24 18:22:43;;;;;;;15.57;12.73;;;7.60;99.20;;;;;;10372666;28;20046;-66
2020/12/24 18:27:44;;;;;;;16.70;11.80;;;7.70;98.90;;;;;;10369862;28;20569;-65
2020/12/24 18:32:46;;;;;;;14.18;10.77;;;7.70;99.00;;;;;;10370694;28;20486;-65
2020/12/24 18:37:48;;;;;;;14.88;11.63;;;7.70;98.80;;;;;;10370641;28;20096;-65
2020/12/24 18:42:49;;;;;;;18.95;12.60;;;7.60;99.30;;;;;;10369701;28;20512;-66
2020/12/24 18:47:51;;;;;;;17.83;12.95;;;7.60;99.60;;;;;;10370466;28;20049;-65
2020/12/24 18:52:53;;;;;;;21.63;14.18;;;7.60;99.30;;;;;;10360219;28;20050;-65
2020/12/24 18:57:57;;;;;;;23.52;15.02;;;7.70;99.20;;;;;;10330801;28;20124;-65
2020/12/24 19:18:48;;;;;;;24.55;16.02;;;7.50;99.50;;;;;;10558868;27;20407;-72
2020/12/24 19:23:50;;;;;;;24.35;16.23;;;7.80;98.70;;;;;;10548906;28;20044;-72
2020/12/24 19:28:52;;;;;;;24.88;16.70;;;7.70;99.10;;;;;;10570695;28;20040;-72
2020/12/24 19:33:54;;;;;;;26.80;18.75;;;7.70;99.30;;;;;;10535603;28;20559;-72
2020/12/24 19:38:55;;;;;;;29.08;19.83;;;7.70;99.20;;;;;;10532848;28;20513;-72
2020/12/24 19:43:57;;;;;;;29.27;19.45;;;7.70;99.00;;;;;;10558354;28;20089;-72
2020/12/24 19:48:59;;;;;;;34.75;22.88;;;7.80;99.00;;;;;;10570696;28;20497;-72
2020/12/24 19:54:00;;;;;;;29.30;17.98;;;7.80;99.10;;;;;;10570516;28;20043;-72
2020/12/24 19:59:02;;;;;;;26.58;17.20;;;7.80;98.90;;;;;;10570892;28;20056;-72
2020/12/24 20:04:04;;;;;;;26.30;18.40;;;7.70;99.00;;;;;;10570643;28;20055;-72
2020/12/24 20:09:05;;;;;;;30.20;17.42;;;7.60;98.80;;;;;;10570839;28;20076;-72
2020/12/24 20:14:07;;;;;;;29.85;18.73;;;7.60;98.80;;;;;;10570099;28;20056;-72
2020/12/24 20:19:09;;;;;;;29.77;17.73;;;7.60;99.10;;;;;;10544411;28;20062;-72
2020/12/24 20:24:10;;;;;;;29.55;19.33;;;7.60;99.10;;;;;;10541628;28;20113;-72
2020/12/24 20:29:12;;;;;;;28.23;18.60;;;7.60;99.20;;;;;;10541392;28;20048;-72
2020/12/24 20:34:14;;;;;;;40.53;24.10;;;7.70;98.90;;;;;;10540636;28;20040;-72
2020/12/24 20:39:16;;;;;;;31.00;19.98;;;7.60;99.30;;;;;;10540969;28;20044;-72
2020/12/24 20:44:18;;;;;;;25.92;16.23;;;7.70;99.40;;;;;;10532968;28;20059;-72
2020/12/24 20:49:20;;;;;;;27.27;17.33;;;7.70;98.70;;;;;;10525517;28;20051;-72
2020/12/24 20:54:21;;;;;;;26.95;16.88;;;7.60;98.80;;;;;;10540806;28;20127;-72
2020/12/24 20:59:28;;;;;;;24.52;16.75;;;7.70;98.80;;;;;;10540117;28;20062;-72
2020/12/24 21:04:30;;;;;;;29.27;17.98;;;7.70;98.80;;;;;;10539562;28;20044;-72
2020/12/24 21:09:32;;;;;;;32.47;18.33;;;7.70;98.70;;;;;;10540416;28;20044;-72
2020/12/24 21:14:33;;;;;;;32.47;18.48;;;7.70;98.80;;;;;;10539434;28;20055;-72
2020/12/24 21:19:35;;;;;;;25.75;16.15;;;7.70;98.70;;;;;;10539213;28;20044;-72
2020/12/24 21:24:37;;;;;;;23.85;15.80;;;7.70;98.40;;;;;;10530740;28;20549;-72
2020/12/24 21:29:38;;;;;;;24.73;14.80;;;7.70;98.30;;;;;;10538299;28;20090;-72
2020/12/24 21:34:40;;;;;;;21.50;14.07;;;7.60;98.20;;;;;;10538719;28;20436;-72
2020/12/24 21:39:41;;;;;;;23.05;14.43;;;7.60;98.40;;;;;;10539466;28;20119;-72
2020/12/24 21:44:43;;;;;;;25.20;14.45;;;7.70;98.40;;;;;;10538788;28;20047;-72
2020/12/24 21:49:45;;;;;;;25.77;14.55;;;7.70;98.30;;;;;;10537679;28;20048;-72
2020/12/24 21:54:47;;;;;;;21.70;14.77;;;7.70;98.30;;;;;;10538372;28;20048;-72
2020/12/24 21:59:49;;;;;;;20.92;12.35;;;7.70;98.40;;;;;;10537883;28;20381;-72
2020/12/24 22:04:51;;;;;;;24.88;13.05;;;7.60;98.30;;;;;;10538167;28;20044;-72
2020/12/24 22:09:53;;;;;;;19.40;12.45;;;7.70;98.30;;;;;;10535988;28;20056;-72
2020/12/24 22:14:54;;;;;;;23.58;12.82;;;7.70;98.20;;;;;;10521628;28;20048;-72
2020/12/24 22:19:57;;;;;;;20.42;12.05;;;7.70;98.30;;;;;;10514767;28;20053;-71
2020/12/24 22:24:59;;;;;;;22.60;11.48;;;7.60;98.20;;;;;;10512931;28;20480;-71
2020/12/24 22:30:00;;;;;;;17.73;10.80;;;7.40;98.50;;;;;;10513792;28;20101;-70
2020/12/24 22:35:13;;;;;;;17.20;9.57;;;7.50;98.50;;;;;;10513215;28;20048;-71
2020/12/24 22:40:15;;;;;;;18.63;10.20;;;7.40;98.40;;;;;;10506741;28;20132;-71
2020/12/24 22:45:17;;;;;;;14.52;9.63;;;7.40;98.50;;;;;;10510598;28;20408;-70
2020/12/24 22:50:19;;;;;;;13.55;9.18;;;7.30;98.60;;;;;;10507099;28;20135;-71
2020/12/24 22:55:20;;;;;;;14.93;9.23;;;7.30;98.50;;;;;;10513994;28;20066;-71
2020/12/24 23:00:29;;;;;;;11.05;7.72;;;7.40;98.70;;;;;;10511649;28;20442;-71
2020/12/24 23:05:32;;;;;;;11.75;8.70;;;7.30;98.10;;;;;;10505578;28;20080;-71
2020/12/24 23:10:34;;;;;;;12.27;7.75;;;7.20;98.10;;;;;;10502488;28;20480;-70
2020/12/24 23:15:36;;;;;;;12.20;7.72;;;7.20;97.90;;;;;;10532235;28;20495;-71
2020/12/24 23:20:38;;;;;;;11.35;7.50;;;7.20;98.00;;;;;;10534721;28;20052;-71
2020/12/24 23:25:41;;;;;;;13.38;8.23;;;7.20;98.00;;;;;;10535261;28;20412;-71
2020/12/24 23:30:44;;;;;;;12.85;8.93;;;7.20;98.00;;;;;;10534040;28;20044;-71
2020/12/24 23:35:52;;;;;;;12.05;8.30;;;7.10;98.10;;;;;;10535226;28;20048;-71
2020/12/24 23:40:53;;;;;;;16.60;8.77;;;7.10;98.30;;;;;;10535715;28;20101;-71
2020/12/24 23:45:55;;;;;;;15.45;9.50;;;7.10;98.50;;;;;;10535391;28;20385;-71
2020/12/24 23:50:56;;;;;;;14.43;9.07;;;7.10;98.50;;;;;;10536334;28;20052;-71
2020/12/24 23:55:58;;;;;;;14.65;9.25;;;7.10;98.20;;;;;;10543236;28;20503;-71
